RYR79SY LATI-LIRN
Flight info
| Callsign | RYR79SY |
|---|---|
| Flight time | 0h 44m |
| Altitude | 30000 |
| Route | DIRES DCT PAPIZ DCT ENOXA/N0468F310 DCT BAR DCT DOGUS/N0467F320 DCT EKTOL |
| Aircraft | B738/M-SDE3FGIJ1LRWY/SB1 |
Departure
| Time | 2026-05-09 10:28 |
|---|---|
| Airport | Tirana International Airport Mother Teresa (LATI) |
Arrival
| Time | 2026-05-09 11:12 |
|---|---|
| Airport | Naples International Airport (LIRN) |
| Time | Latitude | Longitude | Altitude | Speed | Heading |
|---|---|---|---|---|---|
| 2026-05-09 10:19 | 41.41988 | 19.71509 | 115 ft | 0 kts | 264° |
| 2026-05-09 10:23 | 41.41988 | 19.71512 | 114 ft | 2 kts | 264° |
| 2026-05-09 10:23 | 41.41989 | 19.71526 | 115 ft | 2 kts | 264° |
| 2026-05-09 10:23 | 41.41990 | 19.71540 | 118 ft | 2 kts | 264° |
| 2026-05-09 10:23 | 41.41992 | 19.71561 | 114 ft | 3 kts | 264° |
| 2026-05-09 10:24 | 41.41987 | 19.71585 | 114 ft | 3 kts | 319° |
| 2026-05-09 10:24 | 41.41985 | 19.71588 | 114 ft | 0 kts | 324° |
| 2026-05-09 10:24 | 41.41985 | 19.71587 | 114 ft | 1 kts | 325° |
| 2026-05-09 10:25 | 41.42017 | 19.71571 | 116 ft | 9 kts | 343° |
| 2026-05-09 10:25 | 41.42078 | 19.71561 | 114 ft | 9 kts | 353° |
| 2026-05-09 10:25 | 41.42147 | 19.71552 | 117 ft | 12 kts | 356° |
| 2026-05-09 10:25 | 41.42252 | 19.71540 | 112 ft | 18 kts | 354° |
| 2026-05-09 10:26 | 41.42395 | 19.71522 | 113 ft | 22 kts | 354° |
| 2026-05-09 10:26 | 41.42553 | 19.71499 | 114 ft | 23 kts | 355° |
| 2026-05-09 10:26 | 41.42672 | 19.71550 | 113 ft | 20 kts | 83° |
| 2026-05-09 10:26 | 41.42683 | 19.71729 | 113 ft | 19 kts | 85° |
| 2026-05-09 10:27 | 41.42661 | 19.71888 | 113 ft | 18 kts | 147° |
| 2026-05-09 10:27 | 41.42474 | 19.71924 | 113 ft | 54 kts | 174° |
| 2026-05-09 10:27 | 41.41866 | 19.72006 | 116 ft | 120 kts | 174° |
| 2026-05-09 10:27 | 41.40848 | 19.72139 | 203 ft | 166 kts | 174° |
| 2026-05-09 10:28 | 41.39675 | 19.72287 | 799 ft | 172 kts | 175° |
| 2026-05-09 10:28 | 41.38480 | 19.72448 | 1534 ft | 173 kts | 175° |
| 2026-05-09 10:28 | 41.37244 | 19.72616 | 2109 ft | 190 kts | 175° |
| 2026-05-09 10:28 | 41.35825 | 19.72806 | 2382 ft | 218 kts | 175° |
| 2026-05-09 10:29 | 41.34239 | 19.73018 | 2690 ft | 236 kts | 175° |
| 2026-05-09 10:29 | 41.32574 | 19.73239 | 3227 ft | 244 kts | 175° |
| 2026-05-09 10:29 | 41.30906 | 19.73460 | 3882 ft | 246 kts | 175° |
| 2026-05-09 10:29 | 41.29140 | 19.73692 | 4200 ft | 264 kts | 176° |
| 2026-05-09 10:30 | 41.27262 | 19.73937 | 4804 ft | 274 kts | 175° |
| 2026-05-09 10:30 | 41.25374 | 19.73832 | 5652 ft | 274 kts | 200° |
| 2026-05-09 10:30 | 41.23780 | 19.72521 | 6481 ft | 272 kts | 229° |
| 2026-05-09 10:30 | 41.22835 | 19.70388 | 7254 ft | 269 kts | 255° |
| 2026-05-09 10:31 | 41.22571 | 19.67924 | 8019 ft | 271 kts | 269° |
| 2026-05-09 10:31 | 41.22540 | 19.65409 | 8843 ft | 273 kts | 270° |
| 2026-05-09 10:31 | 41.22546 | 19.62913 | 9645 ft | 276 kts | 271° |
| 2026-05-09 10:31 | 41.22557 | 19.60333 | 10316 ft | 284 kts | 271° |
| 2026-05-09 10:32 | 41.22566 | 19.57607 | 10576 ft | 308 kts | 270° |
| 2026-05-09 10:32 | 41.22606 | 19.54634 | 10776 ft | 336 kts | 273° |
| 2026-05-09 10:32 | 41.22669 | 19.51420 | 10941 ft | 359 kts | 270° |
| 2026-05-09 10:32 | 41.22639 | 19.48023 | 11173 ft | 376 kts | 269° |
| 2026-05-09 10:33 | 41.22593 | 19.44517 | 11658 ft | 383 kts | 270° |
| 2026-05-09 10:33 | 41.22551 | 19.40963 | 12291 ft | 386 kts | 270° |
| 2026-05-09 10:33 | 41.22514 | 19.37445 | 12983 ft | 387 kts | 271° |
| 2026-05-09 10:33 | 41.22482 | 19.33863 | 13635 ft | 389 kts | 271° |
| 2026-05-09 10:34 | 41.22452 | 19.30254 | 14199 ft | 392 kts | 271° |
| 2026-05-09 10:34 | 41.22394 | 19.22973 | 15345 ft | 396 kts | 271° |
| 2026-05-09 10:34 | 41.22364 | 19.19309 | 15907 ft | 398 kts | 271° |
| 2026-05-09 10:35 | 41.22333 | 19.15625 | 16445 ft | 400 kts | 271° |
| 2026-05-09 10:35 | 41.22301 | 19.11920 | 16973 ft | 402 kts | 271° |
| 2026-05-09 10:35 | 41.22267 | 19.08195 | 17495 ft | 404 kts | 271° |
| 2026-05-09 10:35 | 41.22232 | 19.04504 | 18004 ft | 406 kts | 271° |
| 2026-05-09 10:36 | 41.22196 | 19.00741 | 18495 ft | 408 kts | 271° |
| 2026-05-09 10:36 | 41.22158 | 18.96960 | 18926 ft | 410 kts | 271° |
| 2026-05-09 10:36 | 41.22119 | 18.93163 | 19352 ft | 412 kts | 271° |
| 2026-05-09 10:36 | 41.22078 | 18.89349 | 19783 ft | 414 kts | 271° |
| 2026-05-09 10:37 | 41.22036 | 18.85519 | 20198 ft | 416 kts | 271° |
| 2026-05-09 10:37 | 41.21992 | 18.81671 | 20617 ft | 418 kts | 271° |
| 2026-05-09 10:37 | 41.21947 | 18.77808 | 21032 ft | 419 kts | 271° |
| 2026-05-09 10:37 | 41.21900 | 18.73931 | 21450 ft | 421 kts | 271° |
| 2026-05-09 10:38 | 41.21852 | 18.70090 | 21845 ft | 422 kts | 271° |
| 2026-05-09 10:38 | 41.21803 | 18.66187 | 22218 ft | 424 kts | 270° |
| 2026-05-09 10:38 | 41.21752 | 18.62258 | 22575 ft | 426 kts | 270° |
| 2026-05-09 10:38 | 41.21699 | 18.58318 | 22928 ft | 428 kts | 270° |
| 2026-05-09 10:39 | 41.21645 | 18.54356 | 23275 ft | 430 kts | 270° |
| 2026-05-09 10:39 | 41.21589 | 18.50376 | 23613 ft | 432 kts | 270° |
| 2026-05-09 10:39 | 41.21531 | 18.46388 | 23902 ft | 433 kts | 270° |
| 2026-05-09 10:39 | 41.21472 | 18.42381 | 24200 ft | 434 kts | 271° |
| 2026-05-09 10:40 | 41.21412 | 18.38428 | 24525 ft | 434 kts | 271° |
| 2026-05-09 10:40 | 41.21351 | 18.34427 | 24842 ft | 434 kts | 271° |
| 2026-05-09 10:40 | 41.21287 | 18.30415 | 25131 ft | 435 kts | 271° |
| 2026-05-09 10:40 | 41.21223 | 18.26395 | 25416 ft | 436 kts | 271° |
| 2026-05-09 10:41 | 41.21156 | 18.22366 | 25697 ft | 437 kts | 271° |
| 2026-05-09 10:41 | 41.21088 | 18.18328 | 25968 ft | 437 kts | 271° |
| 2026-05-09 10:41 | 41.21019 | 18.14296 | 26320 ft | 436 kts | 271° |
| 2026-05-09 10:41 | 41.20948 | 18.10288 | 26769 ft | 432 kts | 271° |
| 2026-05-09 10:42 | 41.20877 | 18.06370 | 27244 ft | 428 kts | 272° |
| 2026-05-09 10:42 | 41.20805 | 18.02432 | 27701 ft | 425 kts | 272° |
| 2026-05-09 10:42 | 41.20732 | 17.98516 | 28106 ft | 423 kts | 272° |
| 2026-05-09 10:42 | 41.20659 | 17.94617 | 28514 ft | 421 kts | 272° |
| 2026-05-09 10:43 | 41.20584 | 17.90739 | 28960 ft | 419 kts | 272° |
| 2026-05-09 10:43 | 41.20509 | 17.86887 | 29399 ft | 416 kts | 273° |
| 2026-05-09 10:43 | 41.20431 | 17.83087 | 30092 ft | 407 kts | 274° |
| 2026-05-09 10:43 | 41.20356 | 17.79362 | 30635 ft | 402 kts | 274° |
| 2026-05-09 10:44 | 41.20283 | 17.75709 | 30962 ft | 401 kts | 274° |
| 2026-05-09 10:44 | 41.20208 | 17.72009 | 31088 ft | 403 kts | 274° |
| 2026-05-09 10:44 | 41.20025 | 17.64501 | 31099 ft | 410 kts | 272° |
| 2026-05-09 10:46 | 41.18812 | 17.45584 | 31099 ft | 411 kts | 271° |
| 2026-05-09 10:46 | 41.18334 | 17.38076 | 31082 ft | 411 kts | 271° |
| 2026-05-09 10:47 | 41.17859 | 17.30528 | 31091 ft | 410 kts | 271° |
| 2026-05-09 10:47 | 41.17381 | 17.22987 | 31098 ft | 410 kts | 270° |
| 2026-05-09 10:48 | 41.16899 | 17.15452 | 31099 ft | 410 kts | 270° |
| 2026-05-09 10:48 | 41.16411 | 17.07916 | 31100 ft | 410 kts | 270° |
| 2026-05-09 10:49 | 41.15922 | 17.00431 | 31102 ft | 410 kts | 270° |
| 2026-05-09 10:49 | 41.15424 | 16.92895 | 31093 ft | 410 kts | 270° |
| 2026-05-09 10:50 | 41.14922 | 16.85360 | 31096 ft | 410 kts | 269° |
| 2026-05-09 10:50 | 41.14413 | 16.77827 | 31099 ft | 410 kts | 269° |
| 2026-05-09 10:51 | 41.13649 | 16.70354 | 31106 ft | 412 kts | 266° |
| 2026-05-09 10:51 | 41.12779 | 16.62840 | 31104 ft | 412 kts | 266° |
| 2026-05-09 10:52 | 41.11913 | 16.55315 | 31100 ft | 412 kts | 266° |
| 2026-05-09 10:52 | 41.11057 | 16.47798 | 31089 ft | 412 kts | 266° |
| 2026-05-09 10:53 | 41.10207 | 16.40329 | 31092 ft | 412 kts | 266° |
| 2026-05-09 10:53 | 41.09348 | 16.32814 | 31080 ft | 412 kts | 265° |
| 2026-05-09 10:54 | 41.08482 | 16.25293 | 31089 ft | 412 kts | 265° |
| 2026-05-09 10:54 | 41.07760 | 16.19053 | 31070 ft | 413 kts | 265° |
| 2026-05-09 10:54 | 41.07320 | 16.15252 | 30404 ft | 419 kts | 265° |
| 2026-05-09 10:55 | 41.06877 | 16.11452 | 29641 ft | 416 kts | 265° |
| 2026-05-09 10:55 | 41.06434 | 16.07662 | 28796 ft | 416 kts | 265° |
| 2026-05-09 10:55 | 41.05846 | 16.02653 | 27651 ft | 415 kts | 265° |
| 2026-05-09 10:55 | 41.05402 | 15.98877 | 26742 ft | 416 kts | 264° |
| 2026-05-09 10:56 | 41.05100 | 15.96313 | 26119 ft | 417 kts | 264° |
| 2026-05-09 10:56 | 41.04509 | 15.91318 | 25260 ft | 412 kts | 264° |
| 2026-05-09 10:56 | 41.04215 | 15.88844 | 24835 ft | 409 kts | 264° |
| 2026-05-09 10:56 | 41.03775 | 15.85140 | 24191 ft | 405 kts | 264° |
| 2026-05-09 10:57 | 41.03338 | 15.81466 | 23532 ft | 402 kts | 264° |
| 2026-05-09 10:57 | 41.02902 | 15.77824 | 22816 ft | 399 kts | 264° |
| 2026-05-09 10:57 | 41.02385 | 15.73053 | 21953 ft | 391 kts | 269° |
| 2026-05-09 10:57 | 41.02362 | 15.69487 | 21358 ft | 384 kts | 275° |
| 2026-05-09 10:58 | 41.02523 | 15.67117 | 20950 ft | 381 kts | 280° |
| 2026-05-09 10:58 | 41.03047 | 15.63748 | 20353 ft | 378 kts | 284° |
| 2026-05-09 10:58 | 41.03631 | 15.60368 | 19753 ft | 376 kts | 284° |
| 2026-05-09 10:58 | 41.04206 | 15.56991 | 19171 ft | 377 kts | 284° |
| 2026-05-09 10:59 | 41.04786 | 15.53557 | 18548 ft | 388 kts | 284° |
| 2026-05-09 10:59 | 41.05374 | 15.50041 | 17868 ft | 390 kts | 284° |
| 2026-05-09 10:59 | 41.05954 | 15.46547 | 17205 ft | 387 kts | 284° |
| 2026-05-09 10:59 | 41.06527 | 15.43083 | 16572 ft | 383 kts | 284° |
| 2026-05-09 11:00 | 41.07092 | 15.39654 | 15958 ft | 379 kts | 284° |
| 2026-05-09 11:00 | 41.07651 | 15.36263 | 15372 ft | 375 kts | 284° |
| 2026-05-09 11:00 | 41.08196 | 15.32939 | 14803 ft | 372 kts | 283° |
| 2026-05-09 11:00 | 41.08744 | 15.29601 | 14244 ft | 370 kts | 283° |
| 2026-05-09 11:01 | 41.09288 | 15.26279 | 13634 ft | 367 kts | 283° |
| 2026-05-09 11:01 | 41.09827 | 15.22981 | 13009 ft | 365 kts | 283° |
| 2026-05-09 11:01 | 41.10157 | 15.19654 | 12403 ft | 366 kts | 269° |
| 2026-05-09 11:01 | 41.09620 | 15.16369 | 12042 ft | 363 kts | 251° |
| 2026-05-09 11:02 | 41.08446 | 15.13452 | 11922 ft | 359 kts | 236° |
| 2026-05-09 11:02 | 41.06801 | 15.10844 | 11841 ft | 379 kts | 231° |
| 2026-05-09 11:02 | 41.05050 | 15.08228 | 11697 ft | 389 kts | 231° |
| 2026-05-09 11:02 | 41.03254 | 15.05534 | 11568 ft | 389 kts | 233° |
| 2026-05-09 11:03 | 41.01877 | 15.02569 | 11454 ft | 371 kts | 252° |
| 2026-05-09 11:03 | 41.01380 | 14.99297 | 11035 ft | 361 kts | 271° |
| 2026-05-09 11:03 | 41.01670 | 14.96010 | 10403 ft | 360 kts | 284° |
| 2026-05-09 11:03 | 41.02434 | 14.92858 | 9821 ft | 359 kts | 295° |
| 2026-05-09 11:04 | 41.03636 | 14.90017 | 9569 ft | 351 kts | 303° |
| 2026-05-09 11:04 | 41.05223 | 14.87645 | 9235 ft | 340 kts | 325° |
| 2026-05-09 11:04 | 41.07174 | 14.86103 | 8984 ft | 322 kts | 329° |
| 2026-05-09 11:04 | 41.09021 | 14.84559 | 8716 ft | 307 kts | 320° |
| 2026-05-09 11:05 | 41.10303 | 14.82402 | 8457 ft | 294 kts | 296° |
| 2026-05-09 11:05 | 41.10825 | 14.79848 | 8215 ft | 283 kts | 276° |
| 2026-05-09 11:05 | 41.10739 | 14.77291 | 7988 ft | 274 kts | 260° |
| 2026-05-09 11:05 | 41.10136 | 14.74950 | 7765 ft | 265 kts | 245° |
| 2026-05-09 11:06 | 41.09253 | 14.72808 | 7615 ft | 267 kts | 241° |
| 2026-05-09 11:06 | 41.08282 | 14.70686 | 7402 ft | 271 kts | 239° |
| 2026-05-09 11:06 | 41.07271 | 14.68553 | 7213 ft | 275 kts | 238° |
| 2026-05-09 11:06 | 41.06258 | 14.66428 | 7003 ft | 278 kts | 238° |
| 2026-05-09 11:07 | 41.05221 | 14.64249 | 6661 ft | 282 kts | 238° |
| 2026-05-09 11:07 | 41.04171 | 14.62036 | 6253 ft | 286 kts | 238° |
| 2026-05-09 11:07 | 41.03109 | 14.59795 | 5838 ft | 289 kts | 238° |
| 2026-05-09 11:07 | 41.02033 | 14.57522 | 5388 ft | 294 kts | 237° |
| 2026-05-09 11:08 | 41.00931 | 14.55258 | 4995 ft | 287 kts | 232° |
| 2026-05-09 11:08 | 40.99825 | 14.53130 | 4564 ft | 278 kts | 239° |
| 2026-05-09 11:08 | 40.98887 | 14.50945 | 4156 ft | 269 kts | 239° |
| 2026-05-09 11:08 | 40.97954 | 14.48894 | 3782 ft | 258 kts | 238° |
| 2026-05-09 11:09 | 40.97022 | 14.46921 | 3416 ft | 248 kts | 237° |
| 2026-05-09 11:09 | 40.96122 | 14.45023 | 3061 ft | 241 kts | 237° |
| 2026-05-09 11:09 | 40.95245 | 14.43171 | 2715 ft | 233 kts | 237° |
| 2026-05-09 11:09 | 40.94405 | 14.41390 | 2375 ft | 221 kts | 238° |
| 2026-05-09 11:10 | 40.93624 | 14.39734 | 2047 ft | 204 kts | 237° |
| 2026-05-09 11:10 | 40.92900 | 14.38201 | 1807 ft | 189 kts | 238° |
| 2026-05-09 11:10 | 40.92226 | 14.36772 | 1532 ft | 176 kts | 238° |
| 2026-05-09 11:10 | 40.91598 | 14.35440 | 1270 ft | 165 kts | 238° |
| 2026-05-09 11:11 | 40.91006 | 14.34185 | 1014 ft | 162 kts | 237° |
| 2026-05-09 11:11 | 40.90419 | 14.32938 | 791 ft | 159 kts | 237° |
| 2026-05-09 11:11 | 40.89834 | 14.31686 | 537 ft | 161 kts | 231° |
| 2026-05-09 11:11 | 40.89236 | 14.30416 | 297 ft | 164 kts | 238° |
| 2026-05-09 11:12 | 40.88656 | 14.29191 | 263 ft | 143 kts | 238° |
| 2026-05-09 11:12 | 40.88369 | 14.28586 | 288 ft | 37 kts | 234° |
| 2026-05-09 11:12 | 40.88210 | 14.28408 | 294 ft | 24 kts | 207° |
| 2026-05-09 11:12 | 40.88102 | 14.28333 | 298 ft | 13 kts | 208° |
| 2026-05-09 11:13 | 40.88063 | 14.28237 | 302 ft | 13 kts | 258° |
| 2026-05-09 11:13 | 40.88017 | 14.28141 | 305 ft | 12 kts | 218° |
| 2026-05-09 11:13 | 40.87960 | 14.28188 | 304 ft | 12 kts | 101° |
| 2026-05-09 11:13 | 40.87926 | 14.28234 | 305 ft | 7 kts | 187° |
| 2026-05-09 11:14 | 40.87880 | 14.28227 | 306 ft | 0 kts | 186° |